Terminal Aerodrome Forecast
Issued by NWS

Home | Current Version | Previous Version | Text Only | Print | Product List | Glossary On
Versions: 1 2 3 4 5 6 7 8 9 10 11 12 13 14 15 16 17 18 19 20 21 22 23 24 25 26 27 28 29 30
000
FTUS46 KMTR 260100 AAB
TAFSFO
TAF AMD
KSFO 260114Z 2601/2706 26014G20KT P6SM FEW009 SCT014 BKN017
     FM260300 26012KT P6SM FEW009 BKN015 BKN017
     FM260600 26008KT P6SM FEW010 OVC012
     FM261700 24005KT P6SM OVC012
     FM262100 26011KT P6SM FEW012 SCT020 BKN025
     FM262300 27015KT P6SM FEW012 SCT020 SCT025
     FM270300 27012KT P6SM SCT012 BKN015=

USA.gov is the U.S. government's official web portal to all federal, state and local government web resources and services.